Time;durP1;ratioP1;P1;durP2;ratioP2;P2;SDS_P1;SDS_P2;PMS_P1;PMS_P2;Temp;Humidity;BMP_temperature;BMP_pressure;BME280_temperature;BME280_humidity;BME280_pressure;Samples;Min_cycle;Max_cycle;Signal;HPM_P1;HPM_P2
2022/11/19 00:00:40;;;;;;;7.53;3.70;;;7.60;38.70;;;;;;5065858;28;20561;-67
2022/11/19 00:03:07;;;;;;;5.10;2.80;;;7.60;38.80;;;;;;5071643;28;20501;-66
2022/11/19 00:05:39;;;;;;;6.40;2.67;;;7.60;38.70;;;;;;5060149;28;20461;-69
2022/11/19 00:08:07;;;;;;;11.00;3.57;;;7.50;38.90;;;;;;5061556;28;20549;-67
2022/11/19 00:10:34;;;;;;;6.73;3.07;;;7.50;38.90;;;;;;5060693;28;20564;-67
2022/11/19 00:13:00;;;;;;;5.50;2.70;;;7.50;38.90;;;;;;5058861;28;20552;-66
2022/11/19 00:15:27;;;;;;;6.93;3.00;;;7.40;39.00;;;;;;5060638;28;20457;-67
2022/11/19 00:17:56;;;;;;;6.07;3.03;;;7.40;39.10;;;;;;5057608;28;20887;-67
2022/11/19 00:20:23;;;;;;;12.90;4.67;;;7.40;39.20;;;;;;5067277;28;20564;-66
2022/11/19 00:22:52;;;;;;;6.13;3.53;;;7.40;39.30;;;;;;5068172;28;20591;-67
2022/11/19 00:25:20;;;;;;;11.70;3.40;;;7.40;39.20;;;;;;5062026;28;20848;-66
2022/11/19 00:27:47;;;;;;;7.40;3.10;;;7.30;39.10;;;;;;5057999;28;20548;-67
2022/11/19 00:30:15;;;;;;;7.50;3.40;;;7.30;39.20;;;;;;5065231;28;20563;-67
2022/11/19 00:32:42;;;;;;;7.00;3.63;;;7.20;39.10;;;;;;5061781;28;20473;-66
2022/11/19 00:35:09;;;;;;;6.90;3.60;;;7.20;39.20;;;;;;5054736;28;20519;-67
2022/11/19 00:37:36;;;;;;;9.40;4.20;;;7.20;39.30;;;;;;5066203;28;20481;-67
2022/11/19 00:40:04;;;;;;;10.80;3.90;;;7.20;39.40;;;;;;5061525;28;21192;-68
2022/11/19 00:42:32;;;;;;;9.80;3.70;;;7.10;39.50;;;;;;5064863;28;20481;-66
2022/11/19 00:44:59;;;;;;;8.00;3.70;;;7.10;39.50;;;;;;5063360;28;20552;-68
2022/11/19 00:47:26;;;;;;;8.57;4.00;;;7.10;39.50;;;;;;5063141;28;21626;-66
2022/11/19 00:49:53;;;;;;;10.00;4.60;;;7.10;39.50;;;;;;5063828;28;20552;-66
2022/11/19 00:52:20;;;;;;;8.00;3.60;;;7.00;39.50;;;;;;5055795;28;20491;-68
2022/11/19 00:54:47;;;;;;;7.83;4.97;;;7.00;39.30;;;;;;5055811;28;20496;-66
2022/11/19 00:57:14;;;;;;;9.77;3.83;;;6.90;39.40;;;;;;5060416;28;20497;-66
2022/11/19 00:59:42;;;;;;;10.90;4.67;;;7.00;39.50;;;;;;5065920;28;20584;-66
2022/11/19 01:02:09;;;;;;;7.80;4.07;;;6.90;39.40;;;;;;5066664;28;20564;-66
2022/11/19 01:04:35;;;;;;;6.47;4.20;;;6.90;39.40;;;;;;5063028;28;20500;-68
2022/11/19 01:07:02;;;;;;;10.00;4.73;;;6.90;39.50;;;;;;5063578;28;20682;-68
2022/11/19 01:09:29;;;;;;;7.33;3.60;;;6.80;39.40;;;;;;5066679;28;20576;-68
2022/11/19 01:11:56;;;;;;;9.30;4.70;;;6.80;39.60;;;;;;5056167;28;20536;-66
2022/11/19 01:14:23;;;;;;;9.23;4.80;;;6.70;39.70;;;;;;5059516;28;20450;-68
2022/11/19 01:16:52;;;;;;;12.30;4.57;;;6.70;39.70;;;;;;5056455;28;20553;-66
2022/11/19 01:19:19;;;;;;;7.90;4.30;;;6.70;39.70;;;;;;5058555;28;21036;-65
2022/11/19 01:21:46;;;;;;;8.60;4.47;;;6.60;39.60;;;;;;5059364;28;21085;-66
2022/11/19 01:24:12;;;;;;;8.83;5.03;;;6.60;39.70;;;;;;5056946;28;21002;-65
2022/11/19 01:26:39;;;;;;;8.50;4.50;;;6.60;39.80;;;;;;5052780;28;20450;-66
2022/11/19 01:29:06;;;;;;;7.87;4.50;;;6.60;39.90;;;;;;5062056;28;20477;-67
2022/11/19 01:31:33;;;;;;;11.90;5.03;;;6.60;39.90;;;;;;5061835;28;20882;-66
2022/11/19 01:34:01;;;;;;;10.07;5.70;;;6.50;40.00;;;;;;5063008;28;20461;-66
2022/11/19 01:36:30;;;;;;;9.13;5.03;;;6.50;40.00;;;;;;5058727;28;20841;-66
2022/11/19 01:38:57;;;;;;;9.47;4.40;;;6.50;40.20;;;;;;5060324;28;20541;-67
2022/11/19 01:41:26;;;;;;;7.50;4.23;;;6.50;40.20;;;;;;5053805;28;20585;-66
2022/11/19 01:43:57;;;;;;;9.50;4.33;;;6.50;40.40;;;;;;5060093;28;20553;-67
2022/11/19 01:46:26;;;;;;;12.73;4.70;;;6.50;40.20;;;;;;5061673;28;20471;-67
2022/11/19 01:48:58;;;;;;;10.20;4.60;;;6.50;40.40;;;;;;5058813;28;20564;-67
2022/11/19 01:51:31;;;;;;;11.20;4.40;;;6.60;40.40;;;;;;5052924;28;21032;-67
2022/11/19 01:54:01;;;;;;;12.27;5.40;;;6.60;40.40;;;;;;5058090;28;20562;-66
2022/11/19 01:56:29;;;;;;;7.73;4.03;;;6.60;40.20;;;;;;5058558;28;20607;-67
2022/11/19 01:59:00;;;;;;;9.73;4.03;;;6.60;40.00;;;;;;5056248;28;20561;-67
2022/11/19 02:01:28;;;;;;;12.20;4.00;;;6.60;40.00;;;;;;5056232;28;20534;-66
2022/11/19 02:03:55;;;;;;;6.80;3.80;;;6.60;40.00;;;;;;5055588;28;20475;-67
2022/11/19 02:06:22;;;;;;;8.37;4.10;;;6.70;40.10;;;;;;5062582;28;21037;-67
2022/11/19 02:08:51;;;;;;;9.33;3.93;;;6.70;40.10;;;;;;5055681;28;21719;-67
2022/11/19 02:11:42;;;;;;;7.10;3.63;;;6.70;40.00;;;;;;5066011;28;20458;-66
2022/11/19 02:14:27;;;;;;;8.20;3.77;;;6.70;39.90;;;;;;5058551;28;20727;-68
2022/11/19 02:17:03;;;;;;;8.27;3.90;;;6.80;39.70;;;;;;5061627;28;20560;-66
2022/11/19 02:20:07;;;;;;;8.73;3.37;;;6.80;39.60;;;;;;5067092;28;20555;-66
2022/11/19 02:22:59;;;;;;;5.60;2.63;;;6.80;39.60;;;;;;5065599;28;20555;-68
2022/11/19 02:25:40;;;;;;;9.30;3.00;;;6.90;39.70;;;;;;5060606;28;20497;-66
2022/11/19 02:28:26;;;;;;;11.03;2.90;;;6.90;39.60;;;;;;5067036;28;20602;-67
2022/11/19 02:30:57;;;;;;;6.60;2.60;;;6.90;39.60;;;;;;5062898;28;20568;-67
2022/11/19 02:33:29;;;;;;;7.20;2.87;;;7.00;39.40;;;;;;5060894;28;20457;-66
2022/11/19 02:36:01;;;;;;;7.03;2.70;;;7.00;39.40;;;;;;5065940;28;20456;-66
2022/11/19 02:38:37;;;;;;;6.10;2.37;;;7.00;39.30;;;;;;5064885;28;20553;-66
2022/11/19 02:44:57;;;;;;;7.20;2.67;;;7.00;39.10;;;;;;5063717;28;20445;-66
2022/11/19 02:46:49;;;;;;;4.93;2.50;;;7.10;39.20;;;;;;5066264;28;20979;-68
2022/11/19 02:49:18;;;;;;;5.47;2.73;;;7.10;39.00;;;;;;5064414;28;20560;-68
2022/11/19 02:51:46;;;;;;;6.20;2.30;;;7.10;39.00;;;;;;5063345;28;21185;-65
2022/11/19 02:54:13;;;;;;;8.70;3.10;;;7.10;38.90;;;;;;5060942;28;20486;-68
2022/11/19 02:56:50;;;;;;;5.60;2.80;;;7.10;39.00;;;;;;5064738;28;20618;-66
2022/11/19 03:04:53;;;;;;;6.63;2.53;;;7.20;39.00;;;;;;5061877;28;20546;-66
2022/11/19 03:07:21;;;;;;;5.80;2.37;;;7.20;39.00;;;;;;5065378;28;20467;-66
2022/11/19 03:09:52;;;;;;;6.90;2.83;;;7.20;38.90;;;;;;5061679;28;20593;-67
2022/11/19 03:12:27;;;;;;;7.93;2.70;;;7.20;38.80;;;;;;5056863;28;20535;-67
2022/11/19 03:17:53;;;;;;;6.53;2.80;;;7.30;38.70;;;;;;5062189;28;20465;-66
2022/11/19 03:20:25;;;;;;;9.43;2.87;;;7.30;38.60;;;;;;5061892;28;20601;-65
2022/11/19 03:22:55;;;;;;;5.77;2.40;;;7.30;38.50;;;;;;5061595;28;21036;-66
2022/11/19 03:25:27;;;;;;;5.17;2.33;;;7.30;38.40;;;;;;5057322;28;20536;-67
2022/11/19 03:27:58;;;;;;;8.20;2.90;;;7.30;38.50;;;;;;5059950;28;20472;-66
2022/11/19 03:30:27;;;;;;;7.57;2.60;;;7.30;38.50;;;;;;5058944;28;20572;-67
2022/11/19 03:33:00;;;;;;;5.43;2.83;;;7.30;38.50;;;;;;5063507;28;20479;-66
2022/11/19 03:35:31;;;;;;;5.70;2.27;;;7.30;38.60;;;;;;5062325;28;20563;-67
2022/11/19 03:38:01;;;;;;;7.70;2.40;;;7.40;38.60;;;;;;5065109;28;20779;-66
2022/11/19 03:40:31;;;;;;;5.70;2.40;;;7.40;38.50;;;;;;5059312;28;20564;-67
2022/11/19 03:43:00;;;;;;;7.40;2.67;;;7.40;38.50;;;;;;5059472;28;21001;-67
2022/11/19 03:45:32;;;;;;;6.83;2.40;;;7.40;38.50;;;;;;5060231;28;20908;-66
2022/11/19 03:48:02;;;;;;;5.83;3.10;;;7.40;38.50;;;;;;5059345;28;20531;-66
2022/11/19 03:50:32;;;;;;;6.67;3.30;;;7.40;38.50;;;;;;5061775;28;20560;-66
2022/11/19 03:52:59;;;;;;;9.10;3.37;;;7.40;38.70;;;;;;5063451;28;21017;-66
2022/11/19 03:55:33;;;;;;;6.27;2.73;;;7.40;38.50;;;;;;5065275;28;20544;-66
2022/11/19 03:58:03;;;;;;;9.40;2.63;;;7.40;38.60;;;;;;5066923;28;20556;-66
2022/11/19 04:00:30;;;;;;;5.33;2.37;;;7.40;38.40;;;;;;5065680;28;20473;-66
2022/11/19 04:02:57;;;;;;;5.40;2.60;;;7.50;38.40;;;;;;5062611;28;21109;-65
2022/11/19 04:05:25;;;;;;;6.60;3.10;;;7.50;38.40;;;;;;5059634;28;20544;-65
2022/11/19 04:07:52;;;;;;;5.90;3.20;;;7.50;38.40;;;;;;5060482;28;20552;-66
2022/11/19 04:10:19;;;;;;;8.23;4.20;;;7.40;38.30;;;;;;5061866;28;21030;-66
2022/11/19 04:12:46;;;;;;;7.07;3.67;;;7.50;38.50;;;;;;5060577;28;20912;-66
2022/11/19 04:15:14;;;;;;;6.57;3.20;;;7.40;38.30;;;;;;5063745;28;20481;-67
2022/11/19 04:17:41;;;;;;;7.83;2.70;;;7.40;38.40;;;;;;5061264;28;21079;-66
2022/11/19 04:20:09;;;;;;;5.87;3.07;;;7.40;38.40;;;;;;5066044;28;21174;-66
2022/11/19 04:22:38;;;;;;;6.67;3.60;;;7.40;38.50;;;;;;5060679;28;20568;-66
2022/11/19 04:25:05;;;;;;;10.23;4.03;;;7.50;38.40;;;;;;5068190;28;20543;-66
2022/11/19 04:27:32;;;;;;;9.53;3.67;;;7.50;38.30;;;;;;5060273;28;20565;-66
2022/11/19 04:29:59;;;;;;;8.47;3.70;;;7.50;38.20;;;;;;5064076;28;20560;-66
2022/11/19 04:32:26;;;;;;;7.43;3.40;;;7.50;38.40;;;;;;5064754;28;20520;-65
2022/11/19 04:34:53;;;;;;;6.97;3.60;;;7.50;38.20;;;;;;5062264;28;20540;-65
2022/11/19 04:37:20;;;;;;;7.70;3.57;;;7.50;38.30;;;;;;5068289;28;20487;-66
2022/11/19 04:39:48;;;;;;;5.77;3.03;;;7.50;38.30;;;;;;5060312;28;20487;-68
2022/11/19 04:42:15;;;;;;;7.93;3.80;;;7.50;38.90;;;;;;5065615;28;20573;-66
2022/11/19 04:44:42;;;;;;;11.47;4.37;;;7.50;38.20;;;;;;5069444;28;20479;-65
2022/11/19 04:47:08;;;;;;;6.93;4.20;;;7.50;38.10;;;;;;5058009;28;20462;-66
2022/11/19 04:49:35;;;;;;;7.07;3.50;;;7.50;38.10;;;;;;5066956;28;20512;-68
2022/11/19 04:52:02;;;;;;;8.80;3.87;;;7.50;38.20;;;;;;5062499;28;20536;-66
2022/11/19 04:54:29;;;;;;;7.90;3.77;;;7.50;38.20;;;;;;5067943;28;20988;-66
2022/11/19 04:56:57;;;;;;;7.00;4.17;;;7.50;38.30;;;;;;5065712;28;20565;-66
2022/11/19 04:59:24;;;;;;;7.43;3.70;;;7.40;38.40;;;;;;5067489;28;21186;-66
2022/11/19 05:01:51;;;;;;;7.87;4.20;;;7.50;38.30;;;;;;5059478;28;20946;-67
2022/11/19 05:04:18;;;;;;;10.37;5.40;;;7.50;38.30;;;;;;5063968;28;20538;-65
2022/11/19 05:06:45;;;;;;;8.40;4.33;;;7.40;38.40;;;;;;5060560;28;20544;-65
2022/11/19 05:09:11;;;;;;;6.90;4.00;;;7.40;38.40;;;;;;5057156;28;20598;-65
2022/11/19 05:11:38;;;;;;;8.97;4.60;;;7.40;38.40;;;;;;5057183;28;20916;-66
2022/11/19 05:14:07;;;;;;;8.20;4.50;;;7.40;38.30;;;;;;5055242;28;20540;-65
2022/11/19 05:16:34;;;;;;;8.93;4.20;;;7.40;38.30;;;;;;5054327;28;21218;-65
2022/11/19 05:19:00;;;;;;;7.57;3.77;;;7.40;38.30;;;;;;5058807;28;20584;-66
2022/11/19 05:21:27;;;;;;;8.10;4.43;;;7.40;38.40;;;;;;5055428;28;20540;-67
2022/11/19 05:23:54;;;;;;;7.00;3.73;;;7.40;38.50;;;;;;5059085;28;20492;-68
2022/11/19 05:26:21;;;;;;;6.93;4.30;;;7.40;38.70;;;;;;5054389;28;20540;-66
2022/11/19 05:28:48;;;;;;;9.50;5.23;;;7.50;38.80;;;;;;5058546;28;20553;-66
2022/11/19 05:31:16;;;;;;;8.47;4.13;;;7.40;38.60;;;;;;5062061;28;20511;-68
2022/11/19 05:33:43;;;;;;;8.60;4.77;;;7.40;38.40;;;;;;5066629;28;20491;-68
2022/11/19 05:36:10;;;;;;;7.60;4.30;;;7.40;38.30;;;;;;5061885;28;20536;-65
2022/11/19 05:38:37;;;;;;;9.33;4.47;;;7.40;38.20;;;;;;5063953;28;21034;-65
2022/11/19 05:41:04;;;;;;;10.20;6.33;;;7.40;38.30;;;;;;5061767;28;20461;-66
2022/11/19 05:43:31;;;;;;;8.67;5.10;;;7.30;38.40;;;;;;5065175;28;20478;-66
2022/11/19 05:46:00;;;;;;;8.77;4.93;;;7.30;38.40;;;;;;5058817;28;20548;-66
2022/11/19 05:48:28;;;;;;;8.80;4.67;;;7.30;38.60;;;;;;5065167;28;20524;-66
2022/11/19 05:50:55;;;;;;;10.33;5.17;;;7.30;38.70;;;;;;5064466;28;20966;-66
2022/11/19 05:53:22;;;;;;;9.37;5.17;;;7.30;38.70;;;;;;5061431;28;20449;-66
2022/11/19 05:55:49;;;;;;;9.30;4.70;;;7.30;39.30;;;;;;5055730;28;20461;-66
2022/11/19 05:58:16;;;;;;;7.33;4.50;;;7.20;38.70;;;;;;5061740;28;20903;-67
2022/11/19 06:00:43;;;;;;;9.20;3.93;;;7.20;39.00;;;;;;5059924;28;20568;-67
2022/11/19 06:03:10;;;;;;;7.83;4.40;;;7.30;39.00;;;;;;5065222;28;20532;-66
2022/11/19 06:05:38;;;;;;;8.60;4.63;;;7.20;39.00;;;;;;5062716;28;20531;-66
2022/11/19 06:08:05;;;;;;;9.53;4.30;;;7.20;39.10;;;;;;5063822;28;20875;-67
2022/11/19 06:10:32;;;;;;;9.23;5.07;;;7.30;39.10;;;;;;5066125;28;20563;-66
2022/11/19 06:12:59;;;;;;;8.43;5.03;;;7.30;39.20;;;;;;5050410;28;20541;-65
2022/11/19 06:15:26;;;;;;;8.10;4.20;;;7.20;39.00;;;;;;5059977;28;20489;-67
2022/11/19 06:17:53;;;;;;;7.00;3.83;;;7.20;39.60;;;;;;5059073;28;20494;-66
2022/11/19 06:20:20;;;;;;;7.63;3.90;;;7.20;39.10;;;;;;5067128;28;20580;-66
2022/11/19 06:22:48;;;;;;;11.70;4.93;;;7.20;39.20;;;;;;5064803;28;20477;-65
2022/11/19 06:25:15;;;;;;;6.53;3.90;;;7.20;39.20;;;;;;5058962;28;20544;-66
2022/11/19 06:27:42;;;;;;;9.70;4.50;;;7.10;39.20;;;;;;5060102;28;20476;-65
2022/11/19 06:30:10;;;;;;;9.50;4.77;;;7.10;39.30;;;;;;5057592;28;20556;-66
2022/11/19 06:32:37;;;;;;;8.30;4.50;;;7.10;39.40;;;;;;5059963;28;20575;-66
2022/11/19 06:35:05;;;;;;;8.40;4.60;;;7.10;39.40;;;;;;5061164;28;20540;-66
2022/11/19 06:37:32;;;;;;;7.60;4.10;;;7.10;39.50;;;;;;5061893;28;20600;-65
2022/11/19 06:40:00;;;;;;;8.53;5.20;;;7.10;39.50;;;;;;5064176;28;20560;-66
2022/11/19 06:42:36;;;;;;;8.03;4.27;;;7.10;39.60;;;;;;5060906;28;20544;-67
2022/11/19 06:45:03;;;;;;;9.80;4.57;;;7.10;39.60;;;;;;5059575;28;20488;-66
2022/11/19 06:47:30;;;;;;;9.20;5.07;;;7.20;39.50;;;;;;5055457;28;20532;-67
2022/11/19 06:49:57;;;;;;;8.00;4.50;;;7.20;39.40;;;;;;5056340;28;20964;-67
2022/11/19 06:52:24;;;;;;;7.43;4.70;;;7.20;39.50;;;;;;5059255;28;20544;-68
2022/11/19 06:54:51;;;;;;;9.57;5.03;;;7.20;39.50;;;;;;5062623;28;20540;-68
2022/11/19 06:57:20;;;;;;;7.90;4.63;;;7.20;39.40;;;;;;5061978;28;20453;-68
2022/11/19 06:59:46;;;;;;;10.13;5.27;;;7.30;39.50;;;;;;5055923;28;20585;-68
2022/11/19 07:02:13;;;;;;;8.20;4.53;;;7.30;39.40;;;;;;5057168;28;20468;-67
2022/11/19 07:04:40;;;;;;;8.13;5.00;;;7.40;39.30;;;;;;5057625;28;20669;-68
2022/11/19 07:07:09;;;;;;;9.70;4.50;;;7.40;39.30;;;;;;5061002;28;20461;-68
2022/11/19 07:09:37;;;;;;;8.30;4.50;;;7.40;39.00;;;;;;5058598;28;20896;-68
2022/11/19 07:12:04;;;;;;;8.03;4.67;;;7.50;39.00;;;;;;5061226;28;20464;-68
2022/11/19 07:14:32;;;;;;;10.00;4.50;;;7.60;38.80;;;;;;5061598;28;20544;-68
2022/11/19 07:16:59;;;;;;;9.30;5.47;;;7.60;38.70;;;;;;5055149;28;20564;-68
2022/11/19 07:19:25;;;;;;;8.57;4.27;;;7.60;38.50;;;;;;5063622;28;20511;-68
2022/11/19 07:21:52;;;;;;;8.23;4.97;;;7.70;38.60;;;;;;5061445;28;20544;-68
2022/11/19 07:24:19;;;;;;;8.10;5.30;;;7.70;38.40;;;;;;5062890;28;20569;-68
2022/11/19 07:26:46;;;;;;;7.73;4.67;;;7.80;38.40;;;;;;5060338;28;20486;-67
2022/11/19 07:29:14;;;;;;;7.40;5.10;;;7.80;38.30;;;;;;5062297;28;20879;-68
2022/11/19 07:31:45;;;;;;;9.50;5.00;;;7.90;38.10;;;;;;5062965;28;21290;-67
2022/11/19 07:34:12;;;;;;;8.03;5.10;;;7.90;37.80;;;;;;5064683;28;21013;-68
2022/11/19 07:36:39;;;;;;;8.30;5.33;;;8.00;37.40;;;;;;5058140;28;20465;-67
2022/11/19 07:39:06;;;;;;;8.93;5.10;;;8.00;37.20;;;;;;5060413;28;20572;-68
2022/11/19 07:44:18;;;;;;;6.60;4.13;;;8.10;36.90;;;;;;5063964;28;20471;-67
2022/11/19 07:46:46;;;;;;;10.70;5.47;;;8.10;36.70;;;;;;5061322;28;20546;-68
2022/11/19 07:49:13;;;;;;;7.80;4.90;;;8.10;36.70;;;;;;5059029;28;20489;-68
2022/11/19 07:51:40;;;;;;;10.03;5.90;;;8.10;36.60;;;;;;5055861;28;20562;-67
2022/11/19 07:54:08;;;;;;;7.70;5.07;;;8.20;36.50;;;;;;5063293;28;20553;-68
2022/11/19 07:56:35;;;;;;;8.90;5.27;;;8.10;36.50;;;;;;5063578;28;20515;-67
2022/11/19 07:59:02;;;;;;;7.00;4.90;;;8.10;36.40;;;;;;5065582;28;20517;-67
2022/11/19 08:01:29;;;;;;;9.87;7.13;;;8.10;36.60;;;;;;5060710;28;20568;-68
2022/11/19 08:03:58;;;;;;;8.70;5.60;;;8.20;36.30;;;;;;5058289;28;20515;-68
2022/11/19 08:06:26;;;;;;;9.17;5.70;;;8.20;36.30;;;;;;5057509;28;21039;-68
2022/11/19 08:08:55;;;;;;;8.07;5.70;;;8.20;36.90;;;;;;5064106;28;20563;-68
2022/11/19 08:11:22;;;;;;;7.60;4.77;;;8.20;36.30;;;;;;5061253;28;20472;-68
2022/11/19 08:13:49;;;;;;;8.63;5.67;;;8.20;36.40;;;;;;5057855;28;20486;-68
2022/11/19 08:18:11;;;;;;;7.83;5.47;;;8.20;36.40;;;;;;5060729;28;20551;-68
2022/11/19 08:19:06;;;;;;;8.10;5.90;;;8.20;36.40;;;;;;5053909;28;20831;-68
2022/11/19 08:21:33;;;;;;;9.07;6.33;;;8.30;36.40;;;;;;5060054;28;20720;-68
2022/11/19 08:24:00;;;;;;;8.00;5.40;;;8.30;36.40;;;;;;5061120;28;20575;-68
2022/11/19 08:26:27;;;;;;;8.50;5.70;;;8.30;36.40;;;;;;5060969;28;20465;-68
2022/11/19 08:28:54;;;;;;;7.83;5.10;;;8.40;36.40;;;;;;5060675;28;21072;-66
2022/11/19 08:31:21;;;;;;;10.67;7.37;;;8.50;36.60;;;;;;5064618;28;20572;-67
2022/11/19 08:33:48;;;;;;;9.20;5.97;;;8.70;35.70;;;;;;5064239;28;20866;-67
2022/11/19 08:36:16;;;;;;;9.63;6.53;;;8.70;35.30;;;;;;5059434;28;20513;-69
2022/11/19 08:38:43;;;;;;;8.87;5.60;;;8.80;35.40;;;;;;5057614;28;20872;-68
2022/11/19 08:43:54;;;;;;;8.13;5.50;;;8.70;35.10;;;;;;5059655;28;20488;-68
2022/11/19 08:46:21;;;;;;;8.17;5.67;;;8.70;35.20;;;;;;5057687;28;20546;-66
2022/11/19 08:48:48;;;;;;;9.30;5.73;;;8.70;35.60;;;;;;5057598;28;20471;-66
2022/11/19 08:51:16;;;;;;;9.30;5.63;;;8.60;35.60;;;;;;5060948;28;20587;-65
2022/11/19 08:53:43;;;;;;;7.87;5.43;;;8.60;35.70;;;;;;5057169;28;20549;-67
2022/11/19 08:56:10;;;;;;;10.87;6.23;;;8.60;35.70;;;;;;5061812;28;20488;-66
2022/11/19 08:58:37;;;;;;;9.80;6.17;;;8.60;35.50;;;;;;5055850;28;20544;-66
2022/11/19 09:01:10;;;;;;;8.67;5.40;;;8.50;35.40;;;;;;5062839;28;20465;-65
2022/11/19 09:03:36;;;;;;;9.00;6.13;;;8.60;35.50;;;;;;5061062;28;20485;-65
2022/11/19 09:06:04;;;;;;;8.30;5.23;;;8.60;35.40;;;;;;5060376;28;20480;-65
2022/11/19 09:08:33;;;;;;;9.30;6.13;;;8.70;35.20;;;;;;5057503;28;20457;-67
2022/11/19 09:11:00;;;;;;;7.03;4.67;;;8.90;35.30;;;;;;5060096;28;20900;-66
2022/11/19 09:13:27;;;;;;;7.97;5.50;;;9.30;35.30;;;;;;5062783;28;20457;-66
2022/11/19 09:15:54;;;;;;;8.50;4.83;;;10.20;34.20;;;;;;5057311;28;20493;-66
2022/11/19 09:18:21;;;;;;;7.80;5.53;;;10.60;31.50;;;;;;5061058;28;21879;-66
2022/11/19 09:20:53;;;;;;;6.67;4.57;;;10.80;30.00;;;;;;5059525;28;20681;-68
2022/11/19 09:23:20;;;;;;;7.20;4.90;;;11.00;29.90;;;;;;5063018;28;20544;-65
2022/11/19 09:25:56;;;;;;;7.93;4.87;;;11.20;29.60;;;;;;5061707;28;20952;-65
2022/11/19 09:28:23;;;;;;;7.03;4.57;;;11.20;28.90;;;;;;5061733;28;20486;-65
2022/11/19 09:30:55;;;;;;;7.20;4.63;;;11.20;28.60;;;;;;5058710;28;21210;-70
2022/11/19 09:33:22;;;;;;;8.60;4.67;;;11.00;28.10;;;;;;5058575;28;20549;-69
2022/11/19 09:35:49;;;;;;;9.30;4.87;;;11.00;28.20;;;;;;5058144;28;20471;-68
2022/11/19 09:38:16;;;;;;;7.57;4.83;;;11.00;27.90;;;;;;5057303;28;20536;-67
2022/11/19 09:40:45;;;;;;;6.93;4.43;;;10.90;27.80;;;;;;5060304;28;20615;-62
2022/11/19 09:43:19;;;;;;;6.37;4.20;;;10.80;27.70;;;;;;5063869;28;20569;-60
2022/11/19 09:45:56;;;;;;;6.90;4.30;;;10.70;28.30;;;;;;5060827;28;20513;-61
2022/11/19 09:48:32;;;;;;;6.10;3.60;;;10.50;28.50;;;;;;5057482;28;20457;-61
2022/11/19 09:51:02;;;;;;;7.60;4.33;;;10.40;28.80;;;;;;5054771;28;20453;-63
2022/11/19 09:53:35;;;;;;;6.80;3.97;;;10.30;29.00;;;;;;5060070;28;20867;-64
2022/11/19 09:56:02;;;;;;;8.00;3.77;;;10.20;29.20;;;;;;5058098;28;20651;-63
2022/11/19 09:58:37;;;;;;;5.87;3.63;;;10.00;29.90;;;;;;5057836;28;20890;-68
2022/11/19 10:01:05;;;;;;;7.10;4.20;;;10.00;30.30;;;;;;5055862;28;20891;-62
2022/11/19 10:03:32;;;;;;;6.87;3.90;;;9.90;30.60;;;;;;5061248;28;20464;-63
2022/11/19 10:06:19;;;;;;;6.70;4.03;;;9.90;30.90;;;;;;5060768;28;20518;-62
2022/11/19 10:09:03;;;;;;;7.30;3.63;;;9.90;31.10;;;;;;5058429;28;20481;-61
2022/11/19 10:11:42;;;;;;;5.90;3.80;;;9.90;31.10;;;;;;5059012;28;20548;-62
2022/11/19 10:14:27;;;;;;;7.27;4.37;;;9.90;31.20;;;;;;5061210;28;20540;-63
2022/11/19 10:17:00;;;;;;;5.40;3.30;;;10.00;31.30;;;;;;5060741;28;20556;-61
2022/11/19 10:19:39;;;;;;;6.67;4.10;;;9.90;31.10;;;;;;5060556;28;20571;-64
2022/11/19 10:22:10;;;;;;;5.40;3.33;;;9.90;31.50;;;;;;5060886;28;20551;-65
2022/11/19 10:24:43;;;;;;;5.80;3.60;;;10.00;31.60;;;;;;5061231;28;20557;-65
2022/11/19 10:27:19;;;;;;;5.13;2.90;;;10.20;31.30;;;;;;5063775;28;20552;-65
2022/11/19 10:29:52;;;;;;;7.80;3.70;;;10.40;30.90;;;;;;5062667;28;20560;-67
2022/11/19 10:32:25;;;;;;;9.17;3.90;;;10.70;30.40;;;;;;5058975;28;20469;-61
2022/11/19 10:34:57;;;;;;;7.80;2.57;;;10.90;29.30;;;;;;5059036;28;20544;-61
2022/11/19 10:37:29;;;;;;;5.40;2.20;;;11.10;28.20;;;;;;5070371;28;20853;-61
2022/11/19 10:40:00;;;;;;;5.10;2.53;;;11.30;27.70;;;;;;5065559;28;20568;-62
2022/11/19 10:42:32;;;;;;;5.23;2.60;;;11.30;27.00;;;;;;5066151;28;20947;-63
2022/11/19 10:45:05;;;;;;;5.43;2.70;;;11.40;26.70;;;;;;5060142;28;20577;-60
2022/11/19 10:47:37;;;;;;;5.33;2.53;;;11.40;26.20;;;;;;5065117;28;20552;-71
2022/11/19 10:50:04;;;;;;;5.23;2.50;;;11.40;26.00;;;;;;5062739;28;21198;-65
2022/11/19 10:52:34;;;;;;;4.90;2.33;;;11.40;25.70;;;;;;5060644;28;20886;-65
2022/11/19 10:55:12;;;;;;;5.20;2.37;;;11.40;25.50;;;;;;5064960;28;20862;-65
2022/11/19 10:57:40;;;;;;;4.73;2.10;;;11.30;25.80;;;;;;5066130;28;20548;-62
2022/11/19 11:00:10;;;;;;;5.73;2.60;;;11.30;25.70;;;;;;5065215;28;20480;-61
2022/11/19 11:02:45;;;;;;;5.30;2.13;;;11.40;25.50;;;;;;5058479;28;20461;-62
2022/11/19 11:05:15;;;;;;;9.53;3.20;;;11.40;26.00;;;;;;5063005;28;20562;-61
2022/11/19 11:07:47;;;;;;;4.83;2.33;;;11.40;25.30;;;;;;5062295;28;20654;-62
2022/11/19 11:10:36;;;;;;;5.03;2.20;;;11.40;25.30;;;;;;5062576;28;20483;-63
2022/11/19 11:16:06;;;;;;;5.03;2.63;;;11.30;25.60;;;;;;5062799;28;20448;-61
2022/11/19 11:18:33;;;;;;;4.90;2.50;;;11.30;25.70;;;;;;5061049;28;20544;-62
2022/11/19 11:21:00;;;;;;;6.33;2.87;;;11.20;26.00;;;;;;5066494;28;21163;-60
2022/11/19 11:23:28;;;;;;;5.93;2.93;;;11.20;26.10;;;;;;5061645;28;20468;-64
2022/11/19 11:26:03;;;;;;;5.20;2.40;;;11.20;26.00;;;;;;5063827;28;20481;-64
2022/11/19 11:28:31;;;;;;;5.37;2.50;;;11.10;26.10;;;;;;5064982;28;20455;-61
2022/11/19 11:31:01;;;;;;;6.40;2.37;;;11.10;26.60;;;;;;5060052;28;20481;-66
2022/11/19 11:33:33;;;;;;;5.80;2.27;;;11.10;26.70;;;;;;5063581;28;20547;-69
2022/11/19 11:36:04;;;;;;;5.53;2.13;;;11.10;26.50;;;;;;5063744;28;20545;-66
2022/11/19 11:38:32;;;;;;;5.27;1.90;;;11.00;26.40;;;;;;5065590;28;20544;-63
2022/11/19 11:41:05;;;;;;;4.80;2.23;;;11.00;26.40;;;;;;5073505;28;20945;-64
2022/11/19 11:43:35;;;;;;;7.37;4.90;;;11.00;26.30;;;;;;5064262;28;20453;-60
2022/11/19 11:46:07;;;;;;;12.20;8.23;;;11.00;26.40;;;;;;5062465;28;20607;-61
2022/11/19 11:48:41;;;;;;;8.33;4.47;;;11.10;26.30;;;;;;5062631;28;20552;-60
2022/11/19 11:51:22;;;;;;;23.67;14.47;;;11.00;26.50;;;;;;5063173;28;20510;-60
2022/11/19 11:54:03;;;;;;;13.87;8.97;;;11.00;26.00;;;;;;5060915;28;20896;-62
2022/11/19 11:56:30;;;;;;;7.50;3.97;;;11.00;26.20;;;;;;5064076;28;20573;-67
2022/11/19 11:59:14;;;;;;;5.33;2.23;;;11.10;26.20;;;;;;5058082;28;20588;-60
2022/11/19 12:01:42;;;;;;;4.60;1.90;;;11.40;26.80;;;;;;5055547;28;20615;-61
2022/11/19 12:04:12;;;;;;;4.40;1.40;;;12.00;25.60;;;;;;5057512;28;20552;-61
2022/11/19 12:06:48;;;;;;;4.80;1.70;;;12.10;23.90;;;;;;5065621;28;21550;-61
2022/11/19 12:09:22;;;;;;;4.27;1.77;;;12.10;23.10;;;;;;5063056;28;20558;-63
2022/11/19 12:11:56;;;;;;;6.13;2.60;;;11.90;23.40;;;;;;5063154;28;20606;-67
2022/11/19 12:14:28;;;;;;;4.40;1.40;;;11.80;24.80;;;;;;5058461;28;20461;-65
2022/11/19 12:17:12;;;;;;;4.00;1.40;;;11.70;25.80;;;;;;5057520;28;20969;-62
2022/11/19 12:19:58;;;;;;;4.77;1.40;;;11.70;26.00;;;;;;5059126;28;20516;-61
2022/11/19 12:22:35;;;;;;;4.03;1.53;;;12.00;26.30;;;;;;5048717;28;20469;-61
2022/11/19 12:25:18;;;;;;;4.50;1.40;;;12.00;25.90;;;;;;5051232;28;20520;-66
2022/11/19 12:28:04;;;;;;;4.90;1.80;;;12.00;26.20;;;;;;5054345;28;20471;-60
2022/11/19 12:30:42;;;;;;;3.70;1.10;;;12.40;25.40;;;;;;5059238;28;20560;-61
2022/11/19 12:33:24;;;;;;;3.87;1.30;;;12.80;23.90;;;;;;5061346;28;21091;-61
2022/11/19 12:36:01;;;;;;;4.03;1.10;;;12.70;23.10;;;;;;5052192;28;20540;-62
2022/11/19 12:38:39;;;;;;;6.97;1.67;;;12.60;22.70;;;;;;5056768;28;22582;-64
2022/11/19 12:41:42;;;;;;;3.57;0.90;;;12.60;23.10;;;;;;5057841;28;20546;-63
2022/11/19 12:44:20;;;;;;;8.50;4.77;;;12.50;23.30;;;;;;5052562;28;20583;-64
2022/11/19 12:46:56;;;;;;;4.40;1.60;;;12.40;23.60;;;;;;5053029;28;20736;-65
2022/11/19 12:49:58;;;;;;;6.60;2.23;;;12.70;24.20;;;;;;5057621;28;20567;-65
2022/11/19 12:52:37;;;;;;;5.00;1.80;;;12.90;23.70;;;;;;5059400;28;20809;-65
2022/11/19 12:55:16;;;;;;;4.20;1.33;;;12.90;22.80;;;;;;5061126;28;20907;-65
2022/11/19 12:57:51;;;;;;;4.07;1.57;;;13.00;21.80;;;;;;5063432;28;20548;-65
2022/11/19 13:00:20;;;;;;;8.30;2.50;;;12.90;22.40;;;;;;5056762;28;20564;-64
2022/11/19 13:03:05;;;;;;;5.10;2.60;;;12.80;22.20;;;;;;5054902;28;20876;-65
2022/11/19 13:05:41;;;;;;;6.07;3.10;;;12.80;22.00;;;;;;5057474;28;20521;-66
2022/11/19 13:08:13;;;;;;;5.20;2.30;;;12.70;20.90;;;;;;5058254;28;20457;-64
2022/11/19 13:10:45;;;;;;;4.07;1.40;;;12.70;21.40;;;;;;5057959;28;20996;-64
2022/11/19 13:13:16;;;;;;;5.40;2.10;;;12.60;21.80;;;;;;5055270;28;20462;-63
2022/11/19 13:15:47;;;;;;;3.70;1.17;;;12.50;21.70;;;;;;5059241;28;20527;-66
2022/11/19 13:18:16;;;;;;;4.00;1.33;;;12.30;21.70;;;;;;5058237;28;20907;-65
2022/11/19 13:20:49;;;;;;;4.73;1.80;;;12.20;21.60;;;;;;5057834;28;20619;-63
2022/11/19 13:23:21;;;;;;;6.70;3.37;;;12.10;21.60;;;;;;5057331;28;20465;-64
2022/11/19 13:25:55;;;;;;;4.23;1.33;;;12.00;21.30;;;;;;5052891;28;20782;-62
2022/11/19 13:28:27;;;;;;;4.10;0.97;;;12.00;21.60;;;;;;5053448;28;20465;-63